<?xml version="1.0" encoding="UTF-8" standalone="no" ?>
<gpx xmlns="http://www.topografix.com/GPX/1/1" xmlns:xsi="http://www.w3.org/2001/XMLSchema-instance" xsi:schemaLocation="http://www.topografix.com/GPX/1/1 http://www.topografix.com/GPX/1/1/gpx.xsd" version="1.1" creator="VisuGPX - https://www.visugpx.com">
  <metadata>
    <name>Tracé actuel: 15 NOV 2020 12:56</name>
    <desc><![CDATA[une bonne saucée sur la fin cote a coté du sercolin 2km environ
]]></desc>
  </metadata>
  <trk>
    <name><![CDATA[Tracé actuel: 15 NOV 2020 12:56]]></name>
    <trkseg>
      <trkpt lat="49.63433" lon="4.98027">
        <ele>216.91</ele>
        <time>2020-11-15T11:56:09Z</time>
      </trkpt>
      <trkpt lat="49.6343" lon="4.98024">
        <ele>205.38</ele>
        <time>2020-11-15T11:56:22Z</time>
      </trkpt>
      <trkpt lat="49.63422" lon="4.98017">
        <ele>199.13</ele>
        <time>2020-11-15T11:56:39Z</time>
      </trkpt>
      <trkpt lat="49.63409" lon="4.98">
        <ele>200.57</ele>
        <time>2020-11-15T11:56:58Z</time>
      </trkpt>
      <trkpt lat="49.63405" lon="4.9799">
        <ele>198.65</ele>
        <time>2020-11-15T11:57:09Z</time>
      </trkpt>
      <trkpt lat="49.63395" lon="4.97972">
        <ele>198.65</ele>
        <time>2020-11-15T11:57:23Z</time>
      </trkpt>
      <trkpt lat="49.63385" lon="4.97954">
        <ele>199.61</ele>
        <time>2020-11-15T11:57:39Z</time>
      </trkpt>
      <trkpt lat="49.63379" lon="4.97934">
        <ele>200.57</ele>
        <time>2020-11-15T11:57:56Z</time>
      </trkpt>
      <trkpt lat="49.63396" lon="4.97916">
        <ele>198.65</ele>
        <time>2020-11-15T11:58:17Z</time>
      </trkpt>
      <trkpt lat="49.63396" lon="4.97914">
        <ele>198.65</ele>
        <time>2020-11-15T11:58:18Z</time>
      </trkpt>
      <trkpt lat="49.63416" lon="4.97883">
        <ele>197.21</ele>
        <time>2020-11-15T11:58:43Z</time>
      </trkpt>
      <trkpt lat="49.63435" lon="4.97878">
        <ele>196.73</ele>
        <time>2020-11-15T11:59:02Z</time>
      </trkpt>
      <trkpt lat="49.6346" lon="4.9786">
        <ele>195.77</ele>
        <time>2020-11-15T11:59:24Z</time>
      </trkpt>
      <trkpt lat="49.63476" lon="4.97843">
        <ele>194.8</ele>
        <time>2020-11-15T11:59:43Z</time>
      </trkpt>
      <trkpt lat="49.63487" lon="4.97823">
        <ele>193.84</ele>
        <time>2020-11-15T12:00:01Z</time>
      </trkpt>
      <trkpt lat="49.63505" lon="4.97801">
        <ele>192.4</ele>
        <time>2020-11-15T12:00:22Z</time>
      </trkpt>
      <trkpt lat="49.63518" lon="4.97786">
        <ele>190.96</ele>
        <time>2020-11-15T12:00:39Z</time>
      </trkpt>
      <trkpt lat="49.63534" lon="4.97771">
        <ele>189.04</ele>
        <time>2020-11-15T12:00:59Z</time>
      </trkpt>
      <trkpt lat="49.63547" lon="4.9775">
        <ele>187.11</ele>
        <time>2020-11-15T12:01:17Z</time>
      </trkpt>
      <trkpt lat="49.63557" lon="4.97731">
        <ele>183.75</ele>
        <time>2020-11-15T12:01:34Z</time>
      </trkpt>
      <trkpt lat="49.63568" lon="4.97705">
        <ele>181.35</ele>
        <time>2020-11-15T12:01:53Z</time>
      </trkpt>
      <trkpt lat="49.63578" lon="4.97683">
        <ele>179.42</ele>
        <time>2020-11-15T12:02:10Z</time>
      </trkpt>
      <trkpt lat="49.63591" lon="4.97663">
        <ele>181.83</ele>
        <time>2020-11-15T12:02:29Z</time>
      </trkpt>
      <trkpt lat="49.63599" lon="4.9765">
        <ele>185.67</ele>
        <time>2020-11-15T12:02:40Z</time>
      </trkpt>
      <trkpt lat="49.636" lon="4.97638">
        <ele>188.56</ele>
        <time>2020-11-15T12:02:48Z</time>
      </trkpt>
      <trkpt lat="49.63585" lon="4.97617">
        <ele>193.84</ele>
        <time>2020-11-15T12:03:05Z</time>
      </trkpt>
      <trkpt lat="49.63568" lon="4.97594">
        <ele>197.21</ele>
        <time>2020-11-15T12:03:24Z</time>
      </trkpt>
      <trkpt lat="49.63555" lon="4.97569">
        <ele>201.53</ele>
        <time>2020-11-15T12:03:42Z</time>
      </trkpt>
      <trkpt lat="49.63542" lon="4.97546">
        <ele>205.38</ele>
        <time>2020-11-15T12:04:00Z</time>
      </trkpt>
      <trkpt lat="49.63529" lon="4.97522">
        <ele>208.26</ele>
        <time>2020-11-15T12:04:18Z</time>
      </trkpt>
      <trkpt lat="49.63524" lon="4.97514">
        <ele>208.74</ele>
        <time>2020-11-15T12:04:24Z</time>
      </trkpt>
      <trkpt lat="49.63509" lon="4.97488">
        <ele>209.7</ele>
        <time>2020-11-15T12:04:44Z</time>
      </trkpt>
      <trkpt lat="49.63496" lon="4.97465">
        <ele>210.67</ele>
        <time>2020-11-15T12:05:01Z</time>
      </trkpt>
      <trkpt lat="49.63486" lon="4.97448">
        <ele>213.55</ele>
        <time>2020-11-15T12:05:19Z</time>
      </trkpt>
      <trkpt lat="49.63474" lon="4.97429">
        <ele>209.22</ele>
        <time>2020-11-15T12:05:36Z</time>
      </trkpt>
      <trkpt lat="49.63459" lon="4.97403">
        <ele>207.78</ele>
        <time>2020-11-15T12:05:56Z</time>
      </trkpt>
      <trkpt lat="49.63446" lon="4.97381">
        <ele>206.34</ele>
        <time>2020-11-15T12:06:14Z</time>
      </trkpt>
      <trkpt lat="49.63436" lon="4.9736">
        <ele>203.94</ele>
        <time>2020-11-15T12:06:31Z</time>
      </trkpt>
      <trkpt lat="49.63423" lon="4.97339">
        <ele>202.98</ele>
        <time>2020-11-15T12:06:51Z</time>
      </trkpt>
      <trkpt lat="49.63409" lon="4.97315">
        <ele>201.05</ele>
        <time>2020-11-15T12:07:09Z</time>
      </trkpt>
      <trkpt lat="49.63397" lon="4.97292">
        <ele>198.17</ele>
        <time>2020-11-15T12:07:30Z</time>
      </trkpt>
      <trkpt lat="49.63382" lon="4.97265">
        <ele>196.25</ele>
        <time>2020-11-15T12:07:49Z</time>
      </trkpt>
      <trkpt lat="49.63369" lon="4.97243">
        <ele>194.8</ele>
        <time>2020-11-15T12:08:05Z</time>
      </trkpt>
      <trkpt lat="49.63363" lon="4.97229">
        <ele>193.36</ele>
        <time>2020-11-15T12:08:16Z</time>
      </trkpt>
      <trkpt lat="49.63352" lon="4.97202">
        <ele>193.36</ele>
        <time>2020-11-15T12:08:35Z</time>
      </trkpt>
      <trkpt lat="49.63344" lon="4.9718">
        <ele>191.44</ele>
        <time>2020-11-15T12:08:53Z</time>
      </trkpt>
      <trkpt lat="49.63337" lon="4.97158">
        <ele>189.52</ele>
        <time>2020-11-15T12:09:11Z</time>
      </trkpt>
      <trkpt lat="49.63331" lon="4.97131">
        <ele>188.08</ele>
        <time>2020-11-15T12:09:30Z</time>
      </trkpt>
      <trkpt lat="49.63325" lon="4.97109">
        <ele>186.15</ele>
        <time>2020-11-15T12:09:47Z</time>
      </trkpt>
      <trkpt lat="49.63319" lon="4.9709">
        <ele>184.71</ele>
        <time>2020-11-15T12:10:05Z</time>
      </trkpt>
      <trkpt lat="49.63314" lon="4.97066">
        <ele>182.79</ele>
        <time>2020-11-15T12:10:25Z</time>
      </trkpt>
      <trkpt lat="49.63308" lon="4.97042">
        <ele>180.87</ele>
        <time>2020-11-15T12:10:43Z</time>
      </trkpt>
      <trkpt lat="49.63301" lon="4.97014">
        <ele>179.9</ele>
        <time>2020-11-15T12:11:02Z</time>
      </trkpt>
      <trkpt lat="49.63294" lon="4.9699">
        <ele>177.98</ele>
        <time>2020-11-15T12:11:17Z</time>
      </trkpt>
      <trkpt lat="49.6329" lon="4.96961">
        <ele>176.54</ele>
        <time>2020-11-15T12:11:35Z</time>
      </trkpt>
      <trkpt lat="49.63283" lon="4.96937">
        <ele>176.06</ele>
        <time>2020-11-15T12:11:52Z</time>
      </trkpt>
      <trkpt lat="49.63277" lon="4.96913">
        <ele>175.1</ele>
        <time>2020-11-15T12:12:08Z</time>
      </trkpt>
      <trkpt lat="49.63269" lon="4.96882">
        <ele>173.66</ele>
        <time>2020-11-15T12:12:25Z</time>
      </trkpt>
      <trkpt lat="49.63256" lon="4.96852">
        <ele>172.21</ele>
        <time>2020-11-15T12:12:45Z</time>
      </trkpt>
      <trkpt lat="49.63247" lon="4.96838">
        <ele>171.25</ele>
        <time>2020-11-15T12:13:00Z</time>
      </trkpt>
      <trkpt lat="49.63239" lon="4.9682">
        <ele>170.77</ele>
        <time>2020-11-15T12:13:17Z</time>
      </trkpt>
      <trkpt lat="49.63223" lon="4.96794">
        <ele>170.29</ele>
        <time>2020-11-15T12:13:34Z</time>
      </trkpt>
      <trkpt lat="49.63205" lon="4.96771">
        <ele>168.85</ele>
        <time>2020-11-15T12:13:52Z</time>
      </trkpt>
      <trkpt lat="49.63198" lon="4.96761">
        <ele>168.37</ele>
        <time>2020-11-15T12:13:59Z</time>
      </trkpt>
      <trkpt lat="49.6318" lon="4.96747">
        <ele>166.45</ele>
        <time>2020-11-15T12:14:17Z</time>
      </trkpt>
      <trkpt lat="49.63164" lon="4.96734">
        <ele>163.56</ele>
        <time>2020-11-15T12:14:33Z</time>
      </trkpt>
      <trkpt lat="49.63148" lon="4.96718">
        <ele>159.24</ele>
        <time>2020-11-15T12:14:50Z</time>
      </trkpt>
      <trkpt lat="49.63133" lon="4.96705">
        <ele>155.39</ele>
        <time>2020-11-15T12:15:06Z</time>
      </trkpt>
      <trkpt lat="49.63113" lon="4.96694">
        <ele>148.18</ele>
        <time>2020-11-15T12:15:26Z</time>
      </trkpt>
      <trkpt lat="49.631" lon="4.96684">
        <ele>140.97</ele>
        <time>2020-11-15T12:15:42Z</time>
      </trkpt>
      <trkpt lat="49.63087" lon="4.96668">
        <ele>140.01</ele>
        <time>2020-11-15T12:16:02Z</time>
      </trkpt>
      <trkpt lat="49.63071" lon="4.96652">
        <ele>140.49</ele>
        <time>2020-11-15T12:16:20Z</time>
      </trkpt>
      <trkpt lat="49.63055" lon="4.96637">
        <ele>141.45</ele>
        <time>2020-11-15T12:16:37Z</time>
      </trkpt>
      <trkpt lat="49.63037" lon="4.96622">
        <ele>142.41</ele>
        <time>2020-11-15T12:16:55Z</time>
      </trkpt>
      <trkpt lat="49.63018" lon="4.96606">
        <ele>141.93</ele>
        <time>2020-11-15T12:17:15Z</time>
      </trkpt>
      <trkpt lat="49.63008" lon="4.96596">
        <ele>143.85</ele>
        <time>2020-11-15T12:17:31Z</time>
      </trkpt>
      <trkpt lat="49.62991" lon="4.96581">
        <ele>145.3</ele>
        <time>2020-11-15T12:17:47Z</time>
      </trkpt>
      <trkpt lat="49.62974" lon="4.96566">
        <ele>145.78</ele>
        <time>2020-11-15T12:18:05Z</time>
      </trkpt>
      <trkpt lat="49.62954" lon="4.96552">
        <ele>143.85</ele>
        <time>2020-11-15T12:18:24Z</time>
      </trkpt>
      <trkpt lat="49.62932" lon="4.96536">
        <ele>139.53</ele>
        <time>2020-11-15T12:18:42Z</time>
      </trkpt>
      <trkpt lat="49.62929" lon="4.96535">
        <ele>139.53</ele>
        <time>2020-11-15T12:18:45Z</time>
      </trkpt>
      <trkpt lat="49.62919" lon="4.96515">
        <ele>139.53</ele>
        <time>2020-11-15T12:19:03Z</time>
      </trkpt>
      <trkpt lat="49.6293" lon="4.96495">
        <ele>135.68</ele>
        <time>2020-11-15T12:19:22Z</time>
      </trkpt>
      <trkpt lat="49.62925" lon="4.96472">
        <ele>133.28</ele>
        <time>2020-11-15T12:19:40Z</time>
      </trkpt>
      <trkpt lat="49.62924" lon="4.96465">
        <ele>132.32</ele>
        <time>2020-11-15T12:19:47Z</time>
      </trkpt>
      <trkpt lat="49.62906" lon="4.96441">
        <ele>130.88</ele>
        <time>2020-11-15T12:20:04Z</time>
      </trkpt>
      <trkpt lat="49.62903" lon="4.96437">
        <ele>131.36</ele>
        <time>2020-11-15T12:20:10Z</time>
      </trkpt>
      <trkpt lat="49.62887" lon="4.96417">
        <ele>132.8</ele>
        <time>2020-11-15T12:20:26Z</time>
      </trkpt>
      <trkpt lat="49.6288" lon="4.96409">
        <ele>132.32</ele>
        <time>2020-11-15T12:20:33Z</time>
      </trkpt>
      <trkpt lat="49.62862" lon="4.96391">
        <ele>131.36</ele>
        <time>2020-11-15T12:20:53Z</time>
      </trkpt>
      <trkpt lat="49.6285" lon="4.9637">
        <ele>129.92</ele>
        <time>2020-11-15T12:21:11Z</time>
      </trkpt>
      <trkpt lat="49.62848" lon="4.96368">
        <ele>129.43</ele>
        <time>2020-11-15T12:21:14Z</time>
      </trkpt>
      <trkpt lat="49.62834" lon="4.96345">
        <ele>131.84</ele>
        <time>2020-11-15T12:21:31Z</time>
      </trkpt>
      <trkpt lat="49.62821" lon="4.96319">
        <ele>132.8</ele>
        <time>2020-11-15T12:21:50Z</time>
      </trkpt>
      <trkpt lat="49.62803" lon="4.96305">
        <ele>134.24</ele>
        <time>2020-11-15T12:22:08Z</time>
      </trkpt>
      <trkpt lat="49.62789" lon="4.96289">
        <ele>135.68</ele>
        <time>2020-11-15T12:22:23Z</time>
      </trkpt>
      <trkpt lat="49.62779" lon="4.96281">
        <ele>136.16</ele>
        <time>2020-11-15T12:22:32Z</time>
      </trkpt>
      <trkpt lat="49.62759" lon="4.96267">
        <ele>131.84</ele>
        <time>2020-11-15T12:22:51Z</time>
      </trkpt>
      <trkpt lat="49.62743" lon="4.96255">
        <ele>129.43</ele>
        <time>2020-11-15T12:23:06Z</time>
      </trkpt>
      <trkpt lat="49.62737" lon="4.96251">
        <ele>128.95</ele>
        <time>2020-11-15T12:23:12Z</time>
      </trkpt>
      <trkpt lat="49.62719" lon="4.96241">
        <ele>122.22</ele>
        <time>2020-11-15T12:23:30Z</time>
      </trkpt>
      <trkpt lat="49.62715" lon="4.9624">
        <ele>121.74</ele>
        <time>2020-11-15T12:23:34Z</time>
      </trkpt>
      <trkpt lat="49.62701" lon="4.96233">
        <ele>114.05</ele>
        <time>2020-11-15T12:23:50Z</time>
      </trkpt>
      <trkpt lat="49.62689" lon="4.96213">
        <ele>110.69</ele>
        <time>2020-11-15T12:24:07Z</time>
      </trkpt>
      <trkpt lat="49.6268" lon="4.96198">
        <ele>111.17</ele>
        <time>2020-11-15T12:24:18Z</time>
      </trkpt>
      <trkpt lat="49.62662" lon="4.96179">
        <ele>111.17</ele>
        <time>2020-11-15T12:24:38Z</time>
      </trkpt>
      <trkpt lat="49.62653" lon="4.96168">
        <ele>111.65</ele>
        <time>2020-11-15T12:24:50Z</time>
      </trkpt>
      <trkpt lat="49.62643" lon="4.96142">
        <ele>117.42</ele>
        <time>2020-11-15T12:25:08Z</time>
      </trkpt>
      <trkpt lat="49.62631" lon="4.96131">
        <ele>125.11</ele>
        <time>2020-11-15T12:25:21Z</time>
      </trkpt>
      <trkpt lat="49.62614" lon="4.96115">
        <ele>133.28</ele>
        <time>2020-11-15T12:25:37Z</time>
      </trkpt>
      <trkpt lat="49.62595" lon="4.96115">
        <ele>139.53</ele>
        <time>2020-11-15T12:25:53Z</time>
      </trkpt>
      <trkpt lat="49.62579" lon="4.96108">
        <ele>142.89</ele>
        <time>2020-11-15T12:26:10Z</time>
      </trkpt>
      <trkpt lat="49.62566" lon="4.96111">
        <ele>145.3</ele>
        <time>2020-11-15T12:26:24Z</time>
      </trkpt>
      <trkpt lat="49.62553" lon="4.96118">
        <ele>147.22</ele>
        <time>2020-11-15T12:26:38Z</time>
      </trkpt>
      <trkpt lat="49.62531" lon="4.96121">
        <ele>151.54</ele>
        <time>2020-11-15T12:26:57Z</time>
      </trkpt>
      <trkpt lat="49.62526" lon="4.96121">
        <ele>152.03</ele>
        <time>2020-11-15T12:27:01Z</time>
      </trkpt>
      <trkpt lat="49.62509" lon="4.96118">
        <ele>155.39</ele>
        <time>2020-11-15T12:27:16Z</time>
      </trkpt>
      <trkpt lat="49.62488" lon="4.96113">
        <ele>157.31</ele>
        <time>2020-11-15T12:27:34Z</time>
      </trkpt>
      <trkpt lat="49.62484" lon="4.96111">
        <ele>157.79</ele>
        <time>2020-11-15T12:27:38Z</time>
      </trkpt>
      <trkpt lat="49.62465" lon="4.96101">
        <ele>158.75</ele>
        <time>2020-11-15T12:27:56Z</time>
      </trkpt>
      <trkpt lat="49.62454" lon="4.96097">
        <ele>157.31</ele>
        <time>2020-11-15T12:28:06Z</time>
      </trkpt>
      <trkpt lat="49.62439" lon="4.96089">
        <ele>156.83</ele>
        <time>2020-11-15T12:28:22Z</time>
      </trkpt>
      <trkpt lat="49.62438" lon="4.96088">
        <ele>156.83</ele>
        <time>2020-11-15T12:28:23Z</time>
      </trkpt>
      <trkpt lat="49.62418" lon="4.96081">
        <ele>156.35</ele>
        <time>2020-11-15T12:28:40Z</time>
      </trkpt>
      <trkpt lat="49.62415" lon="4.9608">
        <ele>156.35</ele>
        <time>2020-11-15T12:28:42Z</time>
      </trkpt>
      <trkpt lat="49.62396" lon="4.96069">
        <ele>154.91</ele>
        <time>2020-11-15T12:28:59Z</time>
      </trkpt>
      <trkpt lat="49.62388" lon="4.96041">
        <ele>153.47</ele>
        <time>2020-11-15T12:29:17Z</time>
      </trkpt>
      <trkpt lat="49.62381" lon="4.96009">
        <ele>152.51</ele>
        <time>2020-11-15T12:29:38Z</time>
      </trkpt>
      <trkpt lat="49.62375" lon="4.95977">
        <ele>153.47</ele>
        <time>2020-11-15T12:29:56Z</time>
      </trkpt>
      <trkpt lat="49.62368" lon="4.95936">
        <ele>164.52</ele>
        <time>2020-11-15T12:30:19Z</time>
      </trkpt>
      <trkpt lat="49.6236" lon="4.95906">
        <ele>166.45</ele>
        <time>2020-11-15T12:30:38Z</time>
      </trkpt>
      <trkpt lat="49.62349" lon="4.95887">
        <ele>164.04</ele>
        <time>2020-11-15T12:30:52Z</time>
      </trkpt>
      <trkpt lat="49.62332" lon="4.95887">
        <ele>164.52</ele>
        <time>2020-11-15T12:31:08Z</time>
      </trkpt>
      <trkpt lat="49.6231" lon="4.95889">
        <ele>165.96</ele>
        <time>2020-11-15T12:31:27Z</time>
      </trkpt>
      <trkpt lat="49.62292" lon="4.95906">
        <ele>161.16</ele>
        <time>2020-11-15T12:31:46Z</time>
      </trkpt>
      <trkpt lat="49.6229" lon="4.9591">
        <ele>160.68</ele>
        <time>2020-11-15T12:31:49Z</time>
      </trkpt>
      <trkpt lat="49.62276" lon="4.95933">
        <ele>161.16</ele>
        <time>2020-11-15T12:32:07Z</time>
      </trkpt>
      <trkpt lat="49.62265" lon="4.95946">
        <ele>162.12</ele>
        <time>2020-11-15T12:32:22Z</time>
      </trkpt>
      <trkpt lat="49.62262" lon="4.95952">
        <ele>162.12</ele>
        <time>2020-11-15T12:32:26Z</time>
      </trkpt>
      <trkpt lat="49.62249" lon="4.95967">
        <ele>164.04</ele>
        <time>2020-11-15T12:32:42Z</time>
      </trkpt>
      <trkpt lat="49.62232" lon="4.9599">
        <ele>165.96</ele>
        <time>2020-11-15T12:33:01Z</time>
      </trkpt>
      <trkpt lat="49.62223" lon="4.96011">
        <ele>166.45</ele>
        <time>2020-11-15T12:33:16Z</time>
      </trkpt>
      <trkpt lat="49.62205" lon="4.96016">
        <ele>167.89</ele>
        <time>2020-11-15T12:33:32Z</time>
      </trkpt>
      <trkpt lat="49.62181" lon="4.96013">
        <ele>167.41</ele>
        <time>2020-11-15T12:33:49Z</time>
      </trkpt>
      <trkpt lat="49.62175" lon="4.96015">
        <ele>168.37</ele>
        <time>2020-11-15T12:33:54Z</time>
      </trkpt>
      <trkpt lat="49.62158" lon="4.96018">
        <ele>172.21</ele>
        <time>2020-11-15T12:34:12Z</time>
      </trkpt>
      <trkpt lat="49.62134" lon="4.96019">
        <ele>176.06</ele>
        <time>2020-11-15T12:34:31Z</time>
      </trkpt>
      <trkpt lat="49.62112" lon="4.96026">
        <ele>177.5</ele>
        <time>2020-11-15T12:34:50Z</time>
      </trkpt>
      <trkpt lat="49.62092" lon="4.96032">
        <ele>179.9</ele>
        <time>2020-11-15T12:35:07Z</time>
      </trkpt>
      <trkpt lat="49.62074" lon="4.96035">
        <ele>181.35</ele>
        <time>2020-11-15T12:35:24Z</time>
      </trkpt>
      <trkpt lat="49.62052" lon="4.96038">
        <ele>183.75</ele>
        <time>2020-11-15T12:35:42Z</time>
      </trkpt>
      <trkpt lat="49.6203" lon="4.96043">
        <ele>183.27</ele>
        <time>2020-11-15T12:36:01Z</time>
      </trkpt>
      <trkpt lat="49.6201" lon="4.96044">
        <ele>176.06</ele>
        <time>2020-11-15T12:36:18Z</time>
      </trkpt>
      <trkpt lat="49.61991" lon="4.96044">
        <ele>174.62</ele>
        <time>2020-11-15T12:36:35Z</time>
      </trkpt>
      <trkpt lat="49.61976" lon="4.96043">
        <ele>176.06</ele>
        <time>2020-11-15T12:36:49Z</time>
      </trkpt>
      <trkpt lat="49.61956" lon="4.9604">
        <ele>174.62</ele>
        <time>2020-11-15T12:37:05Z</time>
      </trkpt>
      <trkpt lat="49.61937" lon="4.9604">
        <ele>173.17</ele>
        <time>2020-11-15T12:37:21Z</time>
      </trkpt>
      <trkpt lat="49.6192" lon="4.9604">
        <ele>169.81</ele>
        <time>2020-11-15T12:37:36Z</time>
      </trkpt>
      <trkpt lat="49.61898" lon="4.9604">
        <ele>167.41</ele>
        <time>2020-11-15T12:37:56Z</time>
      </trkpt>
      <trkpt lat="49.61882" lon="4.96048">
        <ele>167.41</ele>
        <time>2020-11-15T12:38:11Z</time>
      </trkpt>
      <trkpt lat="49.61864" lon="4.96053">
        <ele>167.41</ele>
        <time>2020-11-15T12:38:28Z</time>
      </trkpt>
      <trkpt lat="49.61851" lon="4.96062">
        <ele>168.37</ele>
        <time>2020-11-15T12:38:41Z</time>
      </trkpt>
      <trkpt lat="49.61847" lon="4.96068">
        <ele>166.93</ele>
        <time>2020-11-15T12:38:46Z</time>
      </trkpt>
      <trkpt lat="49.61836" lon="4.96082">
        <ele>165.48</ele>
        <time>2020-11-15T12:39:00Z</time>
      </trkpt>
      <trkpt lat="49.61819" lon="4.96076">
        <ele>164.04</ele>
        <time>2020-11-15T12:39:16Z</time>
      </trkpt>
      <trkpt lat="49.61811" lon="4.96073">
        <ele>164.04</ele>
        <time>2020-11-15T12:39:23Z</time>
      </trkpt>
      <trkpt lat="49.61786" lon="4.96066">
        <ele>161.64</ele>
        <time>2020-11-15T12:39:46Z</time>
      </trkpt>
      <trkpt lat="49.61766" lon="4.96064">
        <ele>158.75</ele>
        <time>2020-11-15T12:40:04Z</time>
      </trkpt>
      <trkpt lat="49.61751" lon="4.96062">
        <ele>155.87</ele>
        <time>2020-11-15T12:40:19Z</time>
      </trkpt>
      <trkpt lat="49.61731" lon="4.96059">
        <ele>152.99</ele>
        <time>2020-11-15T12:40:37Z</time>
      </trkpt>
      <trkpt lat="49.6171" lon="4.9605">
        <ele>150.58</ele>
        <time>2020-11-15T12:40:55Z</time>
      </trkpt>
      <trkpt lat="49.6169" lon="4.96042">
        <ele>148.18</ele>
        <time>2020-11-15T12:41:13Z</time>
      </trkpt>
      <trkpt lat="49.61662" lon="4.96037">
        <ele>145.3</ele>
        <time>2020-11-15T12:41:37Z</time>
      </trkpt>
      <trkpt lat="49.61641" lon="4.96034">
        <ele>151.06</ele>
        <time>2020-11-15T12:41:55Z</time>
      </trkpt>
      <trkpt lat="49.61623" lon="4.96027">
        <ele>152.51</ele>
        <time>2020-11-15T12:42:14Z</time>
      </trkpt>
      <trkpt lat="49.61603" lon="4.96016">
        <ele>161.16</ele>
        <time>2020-11-15T12:42:33Z</time>
      </trkpt>
      <trkpt lat="49.61589" lon="4.96008">
        <ele>166.45</ele>
        <time>2020-11-15T12:42:50Z</time>
      </trkpt>
      <trkpt lat="49.61565" lon="4.96001">
        <ele>170.77</ele>
        <time>2020-11-15T12:43:10Z</time>
      </trkpt>
      <trkpt lat="49.61543" lon="4.95993">
        <ele>167.41</ele>
        <time>2020-11-15T12:43:32Z</time>
      </trkpt>
      <trkpt lat="49.61526" lon="4.95988">
        <ele>157.79</ele>
        <time>2020-11-15T12:43:50Z</time>
      </trkpt>
      <trkpt lat="49.61505" lon="4.95981">
        <ele>149.62</ele>
        <time>2020-11-15T12:44:12Z</time>
      </trkpt>
      <trkpt lat="49.61488" lon="4.95971">
        <ele>144.82</ele>
        <time>2020-11-15T12:44:32Z</time>
      </trkpt>
      <trkpt lat="49.61474" lon="4.95957">
        <ele>141.93</ele>
        <time>2020-11-15T12:44:50Z</time>
      </trkpt>
      <trkpt lat="49.61453" lon="4.95934">
        <ele>148.18</ele>
        <time>2020-11-15T12:45:09Z</time>
      </trkpt>
      <trkpt lat="49.61441" lon="4.95907">
        <ele>153.47</ele>
        <time>2020-11-15T12:45:27Z</time>
      </trkpt>
      <trkpt lat="49.61433" lon="4.95894">
        <ele>151.06</ele>
        <time>2020-11-15T12:45:39Z</time>
      </trkpt>
      <trkpt lat="49.61418" lon="4.95872">
        <ele>149.62</ele>
        <time>2020-11-15T12:45:58Z</time>
      </trkpt>
      <trkpt lat="49.61406" lon="4.95856">
        <ele>149.14</ele>
        <time>2020-11-15T12:46:12Z</time>
      </trkpt>
      <trkpt lat="49.61397" lon="4.95843">
        <ele>147.7</ele>
        <time>2020-11-15T12:46:25Z</time>
      </trkpt>
      <trkpt lat="49.61383" lon="4.95821">
        <ele>145.3</ele>
        <time>2020-11-15T12:46:44Z</time>
      </trkpt>
      <trkpt lat="49.61372" lon="4.95804">
        <ele>146.74</ele>
        <time>2020-11-15T12:46:57Z</time>
      </trkpt>
      <trkpt lat="49.61357" lon="4.95788">
        <ele>147.22</ele>
        <time>2020-11-15T12:47:16Z</time>
      </trkpt>
      <trkpt lat="49.6133" lon="4.95759">
        <ele>157.79</ele>
        <time>2020-11-15T12:47:39Z</time>
      </trkpt>
      <trkpt lat="49.61314" lon="4.95744">
        <ele>161.64</ele>
        <time>2020-11-15T12:47:57Z</time>
      </trkpt>
      <trkpt lat="49.61298" lon="4.95733">
        <ele>157.79</ele>
        <time>2020-11-15T12:48:16Z</time>
      </trkpt>
      <trkpt lat="49.61278" lon="4.95711">
        <ele>155.39</ele>
        <time>2020-11-15T12:48:34Z</time>
      </trkpt>
      <trkpt lat="49.6126" lon="4.95697">
        <ele>152.99</ele>
        <time>2020-11-15T12:48:52Z</time>
      </trkpt>
      <trkpt lat="49.61242" lon="4.95686">
        <ele>148.18</ele>
        <time>2020-11-15T12:49:12Z</time>
      </trkpt>
      <trkpt lat="49.61227" lon="4.95676">
        <ele>142.89</ele>
        <time>2020-11-15T12:49:30Z</time>
      </trkpt>
      <trkpt lat="49.61213" lon="4.95672">
        <ele>137.61</ele>
        <time>2020-11-15T12:49:46Z</time>
      </trkpt>
      <trkpt lat="49.61195" lon="4.95669">
        <ele>130.4</ele>
        <time>2020-11-15T12:50:05Z</time>
      </trkpt>
      <trkpt lat="49.61182" lon="4.95662">
        <ele>127.03</ele>
        <time>2020-11-15T12:50:19Z</time>
      </trkpt>
      <trkpt lat="49.61163" lon="4.9565">
        <ele>126.07</ele>
        <time>2020-11-15T12:50:37Z</time>
      </trkpt>
      <trkpt lat="49.61141" lon="4.95638">
        <ele>126.07</ele>
        <time>2020-11-15T12:50:58Z</time>
      </trkpt>
      <trkpt lat="49.61128" lon="4.95624">
        <ele>131.36</ele>
        <time>2020-11-15T12:51:12Z</time>
      </trkpt>
      <trkpt lat="49.61127" lon="4.95625">
        <ele>132.32</ele>
        <time>2020-11-15T12:51:16Z</time>
      </trkpt>
      <trkpt lat="49.61132" lon="4.95648">
        <ele>141.45</ele>
        <time>2020-11-15T12:51:34Z</time>
      </trkpt>
      <trkpt lat="49.61123" lon="4.95672">
        <ele>152.51</ele>
        <time>2020-11-15T12:51:51Z</time>
      </trkpt>
      <trkpt lat="49.61112" lon="4.95695">
        <ele>165</ele>
        <time>2020-11-15T12:52:07Z</time>
      </trkpt>
      <trkpt lat="49.61096" lon="4.9571">
        <ele>172.69</ele>
        <time>2020-11-15T12:52:21Z</time>
      </trkpt>
      <trkpt lat="49.61086" lon="4.95722">
        <ele>177.02</ele>
        <time>2020-11-15T12:52:33Z</time>
      </trkpt>
      <trkpt lat="49.61085" lon="4.95732">
        <ele>177.5</ele>
        <time>2020-11-15T12:52:38Z</time>
      </trkpt>
      <trkpt lat="49.61087" lon="4.95743">
        <ele>176.54</ele>
        <time>2020-11-15T12:52:45Z</time>
      </trkpt>
      <trkpt lat="49.61107" lon="4.95762">
        <ele>178.46</ele>
        <time>2020-11-15T12:53:07Z</time>
      </trkpt>
      <trkpt lat="49.61123" lon="4.95779">
        <ele>182.79</ele>
        <time>2020-11-15T12:53:27Z</time>
      </trkpt>
      <trkpt lat="49.6114" lon="4.95795">
        <ele>185.19</ele>
        <time>2020-11-15T12:53:46Z</time>
      </trkpt>
      <trkpt lat="49.61155" lon="4.95813">
        <ele>187.59</ele>
        <time>2020-11-15T12:54:07Z</time>
      </trkpt>
      <trkpt lat="49.61159" lon="4.95824">
        <ele>188.56</ele>
        <time>2020-11-15T12:54:24Z</time>
      </trkpt>
      <trkpt lat="49.61154" lon="4.95822">
        <ele>189.52</ele>
        <time>2020-11-15T12:54:51Z</time>
      </trkpt>
      <trkpt lat="49.61147" lon="4.95822">
        <ele>189.52</ele>
        <time>2020-11-15T12:55:00Z</time>
      </trkpt>
      <trkpt lat="49.61127" lon="4.9582">
        <ele>190.48</ele>
        <time>2020-11-15T12:55:18Z</time>
      </trkpt>
      <trkpt lat="49.61121" lon="4.9582">
        <ele>190.96</ele>
        <time>2020-11-15T12:55:24Z</time>
      </trkpt>
      <trkpt lat="49.61113" lon="4.95837">
        <ele>188.56</ele>
        <time>2020-11-15T12:55:38Z</time>
      </trkpt>
      <trkpt lat="49.6111" lon="4.95847">
        <ele>189.04</ele>
        <time>2020-11-15T12:55:44Z</time>
      </trkpt>
      <trkpt lat="49.61129" lon="4.95862">
        <ele>190.96</ele>
        <time>2020-11-15T12:56:04Z</time>
      </trkpt>
      <trkpt lat="49.61143" lon="4.95872">
        <ele>192.88</ele>
        <time>2020-11-15T12:56:18Z</time>
      </trkpt>
      <trkpt lat="49.61165" lon="4.9589">
        <ele>194.32</ele>
        <time>2020-11-15T12:56:41Z</time>
      </trkpt>
      <trkpt lat="49.61182" lon="4.95905">
        <ele>193.84</ele>
        <time>2020-11-15T12:57:00Z</time>
      </trkpt>
      <trkpt lat="49.612" lon="4.95921">
        <ele>194.8</ele>
        <time>2020-11-15T12:57:20Z</time>
      </trkpt>
      <trkpt lat="49.61205" lon="4.95929">
        <ele>195.28</ele>
        <time>2020-11-15T12:57:27Z</time>
      </trkpt>
      <trkpt lat="49.61214" lon="4.95958">
        <ele>196.73</ele>
        <time>2020-11-15T12:57:46Z</time>
      </trkpt>
      <trkpt lat="49.61216" lon="4.95972">
        <ele>197.21</ele>
        <time>2020-11-15T12:57:54Z</time>
      </trkpt>
      <trkpt lat="49.61222" lon="4.96003">
        <ele>199.61</ele>
        <time>2020-11-15T12:58:13Z</time>
      </trkpt>
      <trkpt lat="49.61229" lon="4.96032">
        <ele>203.46</ele>
        <time>2020-11-15T12:58:32Z</time>
      </trkpt>
      <trkpt lat="49.61237" lon="4.9606">
        <ele>205.86</ele>
        <time>2020-11-15T12:58:51Z</time>
      </trkpt>
      <trkpt lat="49.61242" lon="4.96089">
        <ele>208.74</ele>
        <time>2020-11-15T12:59:09Z</time>
      </trkpt>
      <trkpt lat="49.61248" lon="4.96117">
        <ele>209.7</ele>
        <time>2020-11-15T12:59:27Z</time>
      </trkpt>
      <trkpt lat="49.61255" lon="4.96148">
        <ele>210.19</ele>
        <time>2020-11-15T12:59:47Z</time>
      </trkpt>
      <trkpt lat="49.6126" lon="4.96172">
        <ele>210.67</ele>
        <time>2020-11-15T13:00:04Z</time>
      </trkpt>
      <trkpt lat="49.61267" lon="4.96196">
        <ele>213.55</ele>
        <time>2020-11-15T13:00:22Z</time>
      </trkpt>
      <trkpt lat="49.61277" lon="4.96224">
        <ele>214.51</ele>
        <time>2020-11-15T13:00:43Z</time>
      </trkpt>
      <trkpt lat="49.61288" lon="4.96255">
        <ele>221.24</ele>
        <time>2020-11-15T13:01:06Z</time>
      </trkpt>
      <trkpt lat="49.61297" lon="4.96282">
        <ele>224.61</ele>
        <time>2020-11-15T13:01:25Z</time>
      </trkpt>
      <trkpt lat="49.61306" lon="4.96307">
        <ele>226.53</ele>
        <time>2020-11-15T13:01:44Z</time>
      </trkpt>
      <trkpt lat="49.61312" lon="4.96332">
        <ele>228.93</ele>
        <time>2020-11-15T13:02:03Z</time>
      </trkpt>
      <trkpt lat="49.61312" lon="4.96338">
        <ele>227.01</ele>
        <time>2020-11-15T13:02:26Z</time>
      </trkpt>
      <trkpt lat="49.61322" lon="4.96364">
        <ele>228.45</ele>
        <time>2020-11-15T13:02:46Z</time>
      </trkpt>
      <trkpt lat="49.61338" lon="4.96389">
        <ele>229.89</ele>
        <time>2020-11-15T13:03:08Z</time>
      </trkpt>
      <trkpt lat="49.6135" lon="4.96413">
        <ele>228.93</ele>
        <time>2020-11-15T13:03:27Z</time>
      </trkpt>
      <trkpt lat="49.6136" lon="4.96436">
        <ele>229.89</ele>
        <time>2020-11-15T13:03:46Z</time>
      </trkpt>
      <trkpt lat="49.61374" lon="4.96467">
        <ele>231.33</ele>
        <time>2020-11-15T13:04:09Z</time>
      </trkpt>
      <trkpt lat="49.61382" lon="4.96496">
        <ele>232.3</ele>
        <time>2020-11-15T13:04:30Z</time>
      </trkpt>
      <trkpt lat="49.61386" lon="4.96519">
        <ele>234.7</ele>
        <time>2020-11-15T13:04:48Z</time>
      </trkpt>
      <trkpt lat="49.61391" lon="4.96554">
        <ele>240.95</ele>
        <time>2020-11-15T13:05:08Z</time>
      </trkpt>
      <trkpt lat="49.61396" lon="4.96581">
        <ele>241.43</ele>
        <time>2020-11-15T13:05:30Z</time>
      </trkpt>
      <trkpt lat="49.61397" lon="4.96615">
        <ele>242.39</ele>
        <time>2020-11-15T13:05:50Z</time>
      </trkpt>
      <trkpt lat="49.61395" lon="4.96617">
        <ele>243.83</ele>
        <time>2020-11-15T13:06:11Z</time>
      </trkpt>
      <trkpt lat="49.61386" lon="4.96624">
        <ele>249.6</ele>
        <time>2020-11-15T13:06:28Z</time>
      </trkpt>
      <trkpt lat="49.61376" lon="4.96632">
        <ele>253.44</ele>
        <time>2020-11-15T13:06:46Z</time>
      </trkpt>
      <trkpt lat="49.61367" lon="4.96648">
        <ele>257.29</ele>
        <time>2020-11-15T13:07:04Z</time>
      </trkpt>
      <trkpt lat="49.61355" lon="4.96666">
        <ele>261.14</ele>
        <time>2020-11-15T13:07:22Z</time>
      </trkpt>
      <trkpt lat="49.61349" lon="4.96675">
        <ele>262.58</ele>
        <time>2020-11-15T13:07:45Z</time>
      </trkpt>
      <trkpt lat="49.6134" lon="4.96705">
        <ele>264.5</ele>
        <time>2020-11-15T13:08:02Z</time>
      </trkpt>
      <trkpt lat="49.6133" lon="4.96726">
        <ele>265.46</ele>
        <time>2020-11-15T13:08:20Z</time>
      </trkpt>
      <trkpt lat="49.61317" lon="4.96748">
        <ele>269.31</ele>
        <time>2020-11-15T13:08:37Z</time>
      </trkpt>
      <trkpt lat="49.6131" lon="4.96762">
        <ele>271.23</ele>
        <time>2020-11-15T13:08:56Z</time>
      </trkpt>
      <trkpt lat="49.6129" lon="4.9677">
        <ele>277.48</ele>
        <time>2020-11-15T13:09:18Z</time>
      </trkpt>
      <trkpt lat="49.61279" lon="4.96778">
        <ele>278.92</ele>
        <time>2020-11-15T13:09:37Z</time>
      </trkpt>
      <trkpt lat="49.61256" lon="4.96784">
        <ele>281.8</ele>
        <time>2020-11-15T13:09:59Z</time>
      </trkpt>
      <trkpt lat="49.61241" lon="4.96789">
        <ele>283.73</ele>
        <time>2020-11-15T13:10:18Z</time>
      </trkpt>
      <trkpt lat="49.61221" lon="4.96794">
        <ele>286.61</ele>
        <time>2020-11-15T13:10:36Z</time>
      </trkpt>
      <trkpt lat="49.612" lon="4.96802">
        <ele>284.69</ele>
        <time>2020-11-15T13:10:54Z</time>
      </trkpt>
      <trkpt lat="49.61182" lon="4.96806">
        <ele>286.13</ele>
        <time>2020-11-15T13:11:13Z</time>
      </trkpt>
      <trkpt lat="49.61167" lon="4.96812">
        <ele>288.53</ele>
        <time>2020-11-15T13:11:31Z</time>
      </trkpt>
      <trkpt lat="49.61151" lon="4.96818">
        <ele>289.97</ele>
        <time>2020-11-15T13:11:48Z</time>
      </trkpt>
      <trkpt lat="49.61134" lon="4.9682">
        <ele>289.01</ele>
        <time>2020-11-15T13:12:05Z</time>
      </trkpt>
      <trkpt lat="49.61125" lon="4.96855">
        <ele>286.61</ele>
        <time>2020-11-15T13:12:22Z</time>
      </trkpt>
      <trkpt lat="49.61122" lon="4.96888">
        <ele>285.65</ele>
        <time>2020-11-15T13:12:41Z</time>
      </trkpt>
      <trkpt lat="49.61117" lon="4.96918">
        <ele>284.21</ele>
        <time>2020-11-15T13:12:58Z</time>
      </trkpt>
      <trkpt lat="49.61117" lon="4.9694">
        <ele>286.13</ele>
        <time>2020-11-15T13:13:13Z</time>
      </trkpt>
      <trkpt lat="49.61115" lon="4.96965">
        <ele>289.01</ele>
        <time>2020-11-15T13:13:29Z</time>
      </trkpt>
      <trkpt lat="49.61116" lon="4.96982">
        <ele>289.01</ele>
        <time>2020-11-15T13:13:39Z</time>
      </trkpt>
      <trkpt lat="49.61114" lon="4.97006">
        <ele>287.09</ele>
        <time>2020-11-15T13:13:55Z</time>
      </trkpt>
      <trkpt lat="49.61111" lon="4.9704">
        <ele>286.61</ele>
        <time>2020-11-15T13:14:14Z</time>
      </trkpt>
      <trkpt lat="49.61108" lon="4.97067">
        <ele>285.65</ele>
        <time>2020-11-15T13:14:29Z</time>
      </trkpt>
      <trkpt lat="49.61108" lon="4.97093">
        <ele>287.57</ele>
        <time>2020-11-15T13:14:46Z</time>
      </trkpt>
      <trkpt lat="49.61105" lon="4.97126">
        <ele>288.53</ele>
        <time>2020-11-15T13:15:02Z</time>
      </trkpt>
      <trkpt lat="49.61105" lon="4.97149">
        <ele>285.65</ele>
        <time>2020-11-15T13:15:19Z</time>
      </trkpt>
      <trkpt lat="49.61106" lon="4.97178">
        <ele>283.73</ele>
        <time>2020-11-15T13:15:35Z</time>
      </trkpt>
      <trkpt lat="49.61103" lon="4.97206">
        <ele>284.21</ele>
        <time>2020-11-15T13:15:54Z</time>
      </trkpt>
      <trkpt lat="49.611" lon="4.9724">
        <ele>280.36</ele>
        <time>2020-11-15T13:16:12Z</time>
      </trkpt>
      <trkpt lat="49.61101" lon="4.97243">
        <ele>279.88</ele>
        <time>2020-11-15T13:16:14Z</time>
      </trkpt>
      <trkpt lat="49.61102" lon="4.97268">
        <ele>279.4</ele>
        <time>2020-11-15T13:16:31Z</time>
      </trkpt>
      <trkpt lat="49.61105" lon="4.97294">
        <ele>277.48</ele>
        <time>2020-11-15T13:16:49Z</time>
      </trkpt>
      <trkpt lat="49.61101" lon="4.97322">
        <ele>277.96</ele>
        <time>2020-11-15T13:17:04Z</time>
      </trkpt>
      <trkpt lat="49.61104" lon="4.97347">
        <ele>277.48</ele>
        <time>2020-11-15T13:17:20Z</time>
      </trkpt>
      <trkpt lat="49.61103" lon="4.97374">
        <ele>279.4</ele>
        <time>2020-11-15T13:17:39Z</time>
      </trkpt>
      <trkpt lat="49.61098" lon="4.974">
        <ele>283.73</ele>
        <time>2020-11-15T13:17:54Z</time>
      </trkpt>
      <trkpt lat="49.61098" lon="4.9743">
        <ele>284.21</ele>
        <time>2020-11-15T13:18:13Z</time>
      </trkpt>
      <trkpt lat="49.61096" lon="4.97455">
        <ele>283.73</ele>
        <time>2020-11-15T13:18:28Z</time>
      </trkpt>
      <trkpt lat="49.61101" lon="4.97482">
        <ele>282.77</ele>
        <time>2020-11-15T13:18:46Z</time>
      </trkpt>
      <trkpt lat="49.611" lon="4.97503">
        <ele>285.65</ele>
        <time>2020-11-15T13:19:02Z</time>
      </trkpt>
      <trkpt lat="49.61102" lon="4.97531">
        <ele>289.97</ele>
        <time>2020-11-15T13:19:20Z</time>
      </trkpt>
      <trkpt lat="49.611" lon="4.97551">
        <ele>287.57</ele>
        <time>2020-11-15T13:19:36Z</time>
      </trkpt>
      <trkpt lat="49.61098" lon="4.97579">
        <ele>286.61</ele>
        <time>2020-11-15T13:19:52Z</time>
      </trkpt>
      <trkpt lat="49.61093" lon="4.97606">
        <ele>288.53</ele>
        <time>2020-11-15T13:20:09Z</time>
      </trkpt>
      <trkpt lat="49.61092" lon="4.9763">
        <ele>289.01</ele>
        <time>2020-11-15T13:20:26Z</time>
      </trkpt>
      <trkpt lat="49.61093" lon="4.97668">
        <ele>289.49</ele>
        <time>2020-11-15T13:20:43Z</time>
      </trkpt>
      <trkpt lat="49.61094" lon="4.97695">
        <ele>289.97</ele>
        <time>2020-11-15T13:20:59Z</time>
      </trkpt>
      <trkpt lat="49.61095" lon="4.97723">
        <ele>289.01</ele>
        <time>2020-11-15T13:21:18Z</time>
      </trkpt>
      <trkpt lat="49.61096" lon="4.97745">
        <ele>288.53</ele>
        <time>2020-11-15T13:21:35Z</time>
      </trkpt>
      <trkpt lat="49.61098" lon="4.97782">
        <ele>287.09</ele>
        <time>2020-11-15T13:21:54Z</time>
      </trkpt>
      <trkpt lat="49.61094" lon="4.9781">
        <ele>287.57</ele>
        <time>2020-11-15T13:22:10Z</time>
      </trkpt>
      <trkpt lat="49.61095" lon="4.97833">
        <ele>285.65</ele>
        <time>2020-11-15T13:22:25Z</time>
      </trkpt>
      <trkpt lat="49.61098" lon="4.97852">
        <ele>284.21</ele>
        <time>2020-11-15T13:22:40Z</time>
      </trkpt>
      <trkpt lat="49.61096" lon="4.97876">
        <ele>282.28</ele>
        <time>2020-11-15T13:22:57Z</time>
      </trkpt>
      <trkpt lat="49.61098" lon="4.97908">
        <ele>283.73</ele>
        <time>2020-11-15T13:23:14Z</time>
      </trkpt>
      <trkpt lat="49.61094" lon="4.97925">
        <ele>283.25</ele>
        <time>2020-11-15T13:23:30Z</time>
      </trkpt>
      <trkpt lat="49.61095" lon="4.97951">
        <ele>281.32</ele>
        <time>2020-11-15T13:23:47Z</time>
      </trkpt>
      <trkpt lat="49.61101" lon="4.97951">
        <ele>285.17</ele>
        <time>2020-11-15T13:24:10Z</time>
      </trkpt>
      <trkpt lat="49.611" lon="4.97952">
        <ele>289.97</ele>
        <time>2020-11-15T13:24:27Z</time>
      </trkpt>
      <trkpt lat="49.61094" lon="4.97965">
        <ele>290.46</ele>
        <time>2020-11-15T13:24:44Z</time>
      </trkpt>
      <trkpt lat="49.6108" lon="4.97987">
        <ele>291.42</ele>
        <time>2020-11-15T13:25:02Z</time>
      </trkpt>
      <trkpt lat="49.61069" lon="4.98001">
        <ele>293.34</ele>
        <time>2020-11-15T13:25:14Z</time>
      </trkpt>
      <trkpt lat="49.61054" lon="4.98019">
        <ele>297.18</ele>
        <time>2020-11-15T13:25:28Z</time>
      </trkpt>
      <trkpt lat="49.61044" lon="4.98038">
        <ele>299.59</ele>
        <time>2020-11-15T13:25:43Z</time>
      </trkpt>
      <trkpt lat="49.61024" lon="4.98065">
        <ele>302.95</ele>
        <time>2020-11-15T13:26:02Z</time>
      </trkpt>
      <trkpt lat="49.61018" lon="4.98078">
        <ele>302.95</ele>
        <time>2020-11-15T13:26:15Z</time>
      </trkpt>
      <trkpt lat="49.61017" lon="4.98081">
        <ele>302.47</ele>
        <time>2020-11-15T13:26:17Z</time>
      </trkpt>
      <trkpt lat="49.61013" lon="4.98094">
        <ele>302.95</ele>
        <time>2020-11-15T13:26:34Z</time>
      </trkpt>
      <trkpt lat="49.61013" lon="4.98099">
        <ele>301.99</ele>
        <time>2020-11-15T13:26:53Z</time>
      </trkpt>
      <trkpt lat="49.61031" lon="4.98126">
        <ele>301.51</ele>
        <time>2020-11-15T13:27:13Z</time>
      </trkpt>
      <trkpt lat="49.61054" lon="4.98144">
        <ele>307.76</ele>
        <time>2020-11-15T13:27:32Z</time>
      </trkpt>
      <trkpt lat="49.61059" lon="4.98156">
        <ele>303.43</ele>
        <time>2020-11-15T13:27:50Z</time>
      </trkpt>
      <trkpt lat="49.61072" lon="4.98191">
        <ele>300.55</ele>
        <time>2020-11-15T13:28:10Z</time>
      </trkpt>
      <trkpt lat="49.6109" lon="4.98208">
        <ele>299.59</ele>
        <time>2020-11-15T13:28:28Z</time>
      </trkpt>
      <trkpt lat="49.61101" lon="4.98235">
        <ele>299.59</ele>
        <time>2020-11-15T13:28:45Z</time>
      </trkpt>
      <trkpt lat="49.61111" lon="4.98251">
        <ele>299.11</ele>
        <time>2020-11-15T13:28:58Z</time>
      </trkpt>
      <trkpt lat="49.6111" lon="4.98255">
        <ele>297.18</ele>
        <time>2020-11-15T13:29:06Z</time>
      </trkpt>
      <trkpt lat="49.61123" lon="4.98285">
        <ele>297.67</ele>
        <time>2020-11-15T13:29:22Z</time>
      </trkpt>
      <trkpt lat="49.61134" lon="4.98303">
        <ele>295.74</ele>
        <time>2020-11-15T13:29:37Z</time>
      </trkpt>
      <trkpt lat="49.6114" lon="4.98318">
        <ele>294.3</ele>
        <time>2020-11-15T13:29:52Z</time>
      </trkpt>
      <trkpt lat="49.61149" lon="4.98334">
        <ele>289.01</ele>
        <time>2020-11-15T13:30:09Z</time>
      </trkpt>
      <trkpt lat="49.6116" lon="4.9835">
        <ele>289.01</ele>
        <time>2020-11-15T13:30:24Z</time>
      </trkpt>
      <trkpt lat="49.61177" lon="4.98365">
        <ele>289.01</ele>
        <time>2020-11-15T13:30:43Z</time>
      </trkpt>
      <trkpt lat="49.61197" lon="4.98394">
        <ele>295.26</ele>
        <time>2020-11-15T13:31:01Z</time>
      </trkpt>
      <trkpt lat="49.61215" lon="4.98416">
        <ele>299.11</ele>
        <time>2020-11-15T13:31:22Z</time>
      </trkpt>
      <trkpt lat="49.61228" lon="4.98436">
        <ele>299.11</ele>
        <time>2020-11-15T13:31:40Z</time>
      </trkpt>
      <trkpt lat="49.61237" lon="4.98447">
        <ele>300.55</ele>
        <time>2020-11-15T13:31:56Z</time>
      </trkpt>
      <trkpt lat="49.61251" lon="4.98471">
        <ele>302.47</ele>
        <time>2020-11-15T13:32:12Z</time>
      </trkpt>
      <trkpt lat="49.61257" lon="4.98484">
        <ele>300.55</ele>
        <time>2020-11-15T13:32:27Z</time>
      </trkpt>
      <trkpt lat="49.61269" lon="4.98499">
        <ele>299.11</ele>
        <time>2020-11-15T13:32:43Z</time>
      </trkpt>
      <trkpt lat="49.61289" lon="4.98515">
        <ele>299.11</ele>
        <time>2020-11-15T13:33:00Z</time>
      </trkpt>
      <trkpt lat="49.61301" lon="4.98531">
        <ele>293.82</ele>
        <time>2020-11-15T13:33:17Z</time>
      </trkpt>
      <trkpt lat="49.61309" lon="4.98543">
        <ele>289.01</ele>
        <time>2020-11-15T13:33:33Z</time>
      </trkpt>
      <trkpt lat="49.61317" lon="4.98553">
        <ele>285.65</ele>
        <time>2020-11-15T13:33:49Z</time>
      </trkpt>
      <trkpt lat="49.61333" lon="4.98578">
        <ele>283.73</ele>
        <time>2020-11-15T13:34:06Z</time>
      </trkpt>
      <trkpt lat="49.61344" lon="4.98597">
        <ele>283.73</ele>
        <time>2020-11-15T13:34:21Z</time>
      </trkpt>
      <trkpt lat="49.61362" lon="4.98625">
        <ele>291.9</ele>
        <time>2020-11-15T13:34:39Z</time>
      </trkpt>
      <trkpt lat="49.61364" lon="4.98637">
        <ele>288.05</ele>
        <time>2020-11-15T13:34:54Z</time>
      </trkpt>
      <trkpt lat="49.61376" lon="4.98658">
        <ele>286.61</ele>
        <time>2020-11-15T13:35:08Z</time>
      </trkpt>
      <trkpt lat="49.61381" lon="4.98674">
        <ele>286.61</ele>
        <time>2020-11-15T13:35:24Z</time>
      </trkpt>
      <trkpt lat="49.61388" lon="4.98695">
        <ele>286.61</ele>
        <time>2020-11-15T13:35:40Z</time>
      </trkpt>
      <trkpt lat="49.61394" lon="4.98707">
        <ele>288.53</ele>
        <time>2020-11-15T13:35:53Z</time>
      </trkpt>
      <trkpt lat="49.61408" lon="4.98732">
        <ele>290.94</ele>
        <time>2020-11-15T13:36:10Z</time>
      </trkpt>
      <trkpt lat="49.61414" lon="4.98754">
        <ele>294.3</ele>
        <time>2020-11-15T13:36:24Z</time>
      </trkpt>
      <trkpt lat="49.61425" lon="4.9877">
        <ele>296.22</ele>
        <time>2020-11-15T13:36:41Z</time>
      </trkpt>
      <trkpt lat="49.61427" lon="4.98779">
        <ele>295.74</ele>
        <time>2020-11-15T13:36:56Z</time>
      </trkpt>
      <trkpt lat="49.61441" lon="4.98793">
        <ele>294.78</ele>
        <time>2020-11-15T13:37:10Z</time>
      </trkpt>
      <trkpt lat="49.61455" lon="4.98804">
        <ele>297.18</ele>
        <time>2020-11-15T13:37:25Z</time>
      </trkpt>
      <trkpt lat="49.61466" lon="4.98815">
        <ele>304.88</ele>
        <time>2020-11-15T13:37:37Z</time>
      </trkpt>
      <trkpt lat="49.61469" lon="4.98815">
        <ele>304.88</ele>
        <time>2020-11-15T13:37:49Z</time>
      </trkpt>
      <trkpt lat="49.6147" lon="4.98815">
        <ele>304.88</ele>
        <time>2020-11-15T13:37:51Z</time>
      </trkpt>
      <trkpt lat="49.61476" lon="4.98812">
        <ele>303.43</ele>
        <time>2020-11-15T13:38:03Z</time>
      </trkpt>
      <trkpt lat="49.61487" lon="4.98807">
        <ele>304.39</ele>
        <time>2020-11-15T13:38:16Z</time>
      </trkpt>
      <trkpt lat="49.61505" lon="4.98808">
        <ele>304.88</ele>
        <time>2020-11-15T13:38:29Z</time>
      </trkpt>
      <trkpt lat="49.61515" lon="4.9881">
        <ele>304.88</ele>
        <time>2020-11-15T13:38:41Z</time>
      </trkpt>
      <trkpt lat="49.61523" lon="4.98812">
        <ele>305.84</ele>
        <time>2020-11-15T13:38:54Z</time>
      </trkpt>
      <trkpt lat="49.61541" lon="4.98821">
        <ele>306.8</ele>
        <time>2020-11-15T13:39:09Z</time>
      </trkpt>
      <trkpt lat="49.6155" lon="4.98828">
        <ele>304.88</ele>
        <time>2020-11-15T13:39:22Z</time>
      </trkpt>
      <trkpt lat="49.61556" lon="4.98836">
        <ele>304.88</ele>
        <time>2020-11-15T13:39:36Z</time>
      </trkpt>
      <trkpt lat="49.61562" lon="4.98841">
        <ele>304.39</ele>
        <time>2020-11-15T13:39:46Z</time>
      </trkpt>
      <trkpt lat="49.61574" lon="4.98854">
        <ele>304.39</ele>
        <time>2020-11-15T13:40:01Z</time>
      </trkpt>
      <trkpt lat="49.61587" lon="4.9886">
        <ele>302.47</ele>
        <time>2020-11-15T13:40:12Z</time>
      </trkpt>
      <trkpt lat="49.61601" lon="4.98862">
        <ele>303.43</ele>
        <time>2020-11-15T13:40:26Z</time>
      </trkpt>
      <trkpt lat="49.61612" lon="4.98873">
        <ele>306.8</ele>
        <time>2020-11-15T13:40:38Z</time>
      </trkpt>
      <trkpt lat="49.6162" lon="4.9888">
        <ele>306.32</ele>
        <time>2020-11-15T13:40:50Z</time>
      </trkpt>
      <trkpt lat="49.61626" lon="4.98888">
        <ele>305.84</ele>
        <time>2020-11-15T13:41:03Z</time>
      </trkpt>
      <trkpt lat="49.61636" lon="4.98875">
        <ele>304.88</ele>
        <time>2020-11-15T13:41:17Z</time>
      </trkpt>
      <trkpt lat="49.61658" lon="4.98849">
        <ele>300.07</ele>
        <time>2020-11-15T13:41:32Z</time>
      </trkpt>
      <trkpt lat="49.61671" lon="4.98824">
        <ele>301.51</ele>
        <time>2020-11-15T13:41:46Z</time>
      </trkpt>
      <trkpt lat="49.61675" lon="4.98813">
        <ele>304.88</ele>
        <time>2020-11-15T13:41:54Z</time>
      </trkpt>
      <trkpt lat="49.6168" lon="4.98799">
        <ele>308.72</ele>
        <time>2020-11-15T13:42:08Z</time>
      </trkpt>
      <trkpt lat="49.61688" lon="4.98786">
        <ele>309.2</ele>
        <time>2020-11-15T13:42:22Z</time>
      </trkpt>
      <trkpt lat="49.617" lon="4.98759">
        <ele>307.28</ele>
        <time>2020-11-15T13:42:39Z</time>
      </trkpt>
      <trkpt lat="49.61711" lon="4.98736">
        <ele>309.68</ele>
        <time>2020-11-15T13:42:54Z</time>
      </trkpt>
      <trkpt lat="49.6172" lon="4.98721">
        <ele>308.72</ele>
        <time>2020-11-15T13:43:08Z</time>
      </trkpt>
      <trkpt lat="49.61726" lon="4.98698">
        <ele>311.6</ele>
        <time>2020-11-15T13:43:24Z</time>
      </trkpt>
      <trkpt lat="49.61733" lon="4.98686">
        <ele>308.72</ele>
        <time>2020-11-15T13:43:30Z</time>
      </trkpt>
      <trkpt lat="49.61734" lon="4.98665">
        <ele>303.43</ele>
        <time>2020-11-15T13:43:44Z</time>
      </trkpt>
      <trkpt lat="49.61738" lon="4.98639">
        <ele>299.59</ele>
        <time>2020-11-15T13:44:01Z</time>
      </trkpt>
      <trkpt lat="49.6175" lon="4.98614">
        <ele>297.18</ele>
        <time>2020-11-15T13:44:16Z</time>
      </trkpt>
      <trkpt lat="49.6176" lon="4.98591">
        <ele>293.82</ele>
        <time>2020-11-15T13:44:30Z</time>
      </trkpt>
      <trkpt lat="49.61757" lon="4.98568">
        <ele>295.26</ele>
        <time>2020-11-15T13:44:44Z</time>
      </trkpt>
      <trkpt lat="49.61756" lon="4.9855">
        <ele>299.11</ele>
        <time>2020-11-15T13:44:57Z</time>
      </trkpt>
      <trkpt lat="49.61756" lon="4.98534">
        <ele>300.55</ele>
        <time>2020-11-15T13:45:10Z</time>
      </trkpt>
      <trkpt lat="49.61758" lon="4.98504">
        <ele>301.99</ele>
        <time>2020-11-15T13:45:24Z</time>
      </trkpt>
      <trkpt lat="49.61766" lon="4.9848">
        <ele>300.07</ele>
        <time>2020-11-15T13:45:39Z</time>
      </trkpt>
      <trkpt lat="49.61773" lon="4.98454">
        <ele>298.15</ele>
        <time>2020-11-15T13:45:55Z</time>
      </trkpt>
      <trkpt lat="49.61777" lon="4.98436">
        <ele>297.18</ele>
        <time>2020-11-15T13:46:08Z</time>
      </trkpt>
      <trkpt lat="49.6178" lon="4.9842">
        <ele>296.7</ele>
        <time>2020-11-15T13:46:22Z</time>
      </trkpt>
      <trkpt lat="49.61786" lon="4.98404">
        <ele>296.7</ele>
        <time>2020-11-15T13:46:35Z</time>
      </trkpt>
      <trkpt lat="49.61794" lon="4.98377">
        <ele>297.18</ele>
        <time>2020-11-15T13:46:50Z</time>
      </trkpt>
      <trkpt lat="49.618" lon="4.98353">
        <ele>295.74</ele>
        <time>2020-11-15T13:47:04Z</time>
      </trkpt>
      <trkpt lat="49.61804" lon="4.98332">
        <ele>292.38</ele>
        <time>2020-11-15T13:47:21Z</time>
      </trkpt>
      <trkpt lat="49.61807" lon="4.98314">
        <ele>290.46</ele>
        <time>2020-11-15T13:47:32Z</time>
      </trkpt>
      <trkpt lat="49.61811" lon="4.98289">
        <ele>289.01</ele>
        <time>2020-11-15T13:47:47Z</time>
      </trkpt>
      <trkpt lat="49.61818" lon="4.98255">
        <ele>291.42</ele>
        <time>2020-11-15T13:48:06Z</time>
      </trkpt>
      <trkpt lat="49.61819" lon="4.9825">
        <ele>292.38</ele>
        <time>2020-11-15T13:48:08Z</time>
      </trkpt>
      <trkpt lat="49.61825" lon="4.98226">
        <ele>294.78</ele>
        <time>2020-11-15T13:48:23Z</time>
      </trkpt>
      <trkpt lat="49.61827" lon="4.98201">
        <ele>293.82</ele>
        <time>2020-11-15T13:48:40Z</time>
      </trkpt>
      <trkpt lat="49.61832" lon="4.98193">
        <ele>292.86</ele>
        <time>2020-11-15T13:48:56Z</time>
      </trkpt>
      <trkpt lat="49.6183" lon="4.98193">
        <ele>293.34</ele>
        <time>2020-11-15T13:49:13Z</time>
      </trkpt>
      <trkpt lat="49.61843" lon="4.98178">
        <ele>293.82</ele>
        <time>2020-11-15T13:49:33Z</time>
      </trkpt>
      <trkpt lat="49.61856" lon="4.9817">
        <ele>292.86</ele>
        <time>2020-11-15T13:49:47Z</time>
      </trkpt>
      <trkpt lat="49.61861" lon="4.98165">
        <ele>290.94</ele>
        <time>2020-11-15T13:50:05Z</time>
      </trkpt>
      <trkpt lat="49.61869" lon="4.98164">
        <ele>288.53</ele>
        <time>2020-11-15T13:50:17Z</time>
      </trkpt>
      <trkpt lat="49.61884" lon="4.98162">
        <ele>287.09</ele>
        <time>2020-11-15T13:50:31Z</time>
      </trkpt>
      <trkpt lat="49.61892" lon="4.98163">
        <ele>284.69</ele>
        <time>2020-11-15T13:50:41Z</time>
      </trkpt>
      <trkpt lat="49.619" lon="4.98165">
        <ele>284.21</ele>
        <time>2020-11-15T13:50:53Z</time>
      </trkpt>
      <trkpt lat="49.61916" lon="4.98173">
        <ele>282.77</ele>
        <time>2020-11-15T13:51:10Z</time>
      </trkpt>
      <trkpt lat="49.61933" lon="4.98178">
        <ele>282.28</ele>
        <time>2020-11-15T13:51:28Z</time>
      </trkpt>
      <trkpt lat="49.61955" lon="4.98187">
        <ele>284.21</ele>
        <time>2020-11-15T13:51:46Z</time>
      </trkpt>
      <trkpt lat="49.61986" lon="4.98194">
        <ele>287.09</ele>
        <time>2020-11-15T13:52:05Z</time>
      </trkpt>
      <trkpt lat="49.62006" lon="4.982">
        <ele>285.65</ele>
        <time>2020-11-15T13:52:21Z</time>
      </trkpt>
      <trkpt lat="49.62024" lon="4.98208">
        <ele>281.8</ele>
        <time>2020-11-15T13:52:38Z</time>
      </trkpt>
      <trkpt lat="49.62037" lon="4.98214">
        <ele>278.92</ele>
        <time>2020-11-15T13:52:52Z</time>
      </trkpt>
      <trkpt lat="49.62052" lon="4.98222">
        <ele>277.96</ele>
        <time>2020-11-15T13:53:08Z</time>
      </trkpt>
      <trkpt lat="49.62066" lon="4.98227">
        <ele>278.44</ele>
        <time>2020-11-15T13:53:24Z</time>
      </trkpt>
      <trkpt lat="49.62087" lon="4.98236">
        <ele>277.96</ele>
        <time>2020-11-15T13:53:41Z</time>
      </trkpt>
      <trkpt lat="49.62103" lon="4.98242">
        <ele>277</ele>
        <time>2020-11-15T13:53:54Z</time>
      </trkpt>
      <trkpt lat="49.62121" lon="4.98252">
        <ele>274.11</ele>
        <time>2020-11-15T13:54:10Z</time>
      </trkpt>
      <trkpt lat="49.6214" lon="4.98262">
        <ele>268.83</ele>
        <time>2020-11-15T13:54:26Z</time>
      </trkpt>
      <trkpt lat="49.62156" lon="4.98272">
        <ele>266.9</ele>
        <time>2020-11-15T13:54:41Z</time>
      </trkpt>
      <trkpt lat="49.62169" lon="4.98275">
        <ele>263.06</ele>
        <time>2020-11-15T13:54:55Z</time>
      </trkpt>
      <trkpt lat="49.62177" lon="4.98284">
        <ele>261.62</ele>
        <time>2020-11-15T13:55:08Z</time>
      </trkpt>
      <trkpt lat="49.6219" lon="4.98297">
        <ele>267.38</ele>
        <time>2020-11-15T13:55:23Z</time>
      </trkpt>
      <trkpt lat="49.62203" lon="4.98303">
        <ele>273.15</ele>
        <time>2020-11-15T13:55:38Z</time>
      </trkpt>
      <trkpt lat="49.62219" lon="4.98312">
        <ele>277</ele>
        <time>2020-11-15T13:55:53Z</time>
      </trkpt>
      <trkpt lat="49.62241" lon="4.98321">
        <ele>282.77</ele>
        <time>2020-11-15T13:56:08Z</time>
      </trkpt>
      <trkpt lat="49.62251" lon="4.98326">
        <ele>282.77</ele>
        <time>2020-11-15T13:56:20Z</time>
      </trkpt>
      <trkpt lat="49.62268" lon="4.98339">
        <ele>278.92</ele>
        <time>2020-11-15T13:56:39Z</time>
      </trkpt>
      <trkpt lat="49.62267" lon="4.98345">
        <ele>276.52</ele>
        <time>2020-11-15T13:56:42Z</time>
      </trkpt>
      <trkpt lat="49.62283" lon="4.98366">
        <ele>269.31</ele>
        <time>2020-11-15T13:57:00Z</time>
      </trkpt>
      <trkpt lat="49.62294" lon="4.98377">
        <ele>261.62</ele>
        <time>2020-11-15T13:57:15Z</time>
      </trkpt>
      <trkpt lat="49.62295" lon="4.98378">
        <ele>261.14</ele>
        <time>2020-11-15T13:57:16Z</time>
      </trkpt>
      <trkpt lat="49.62307" lon="4.98396">
        <ele>255.37</ele>
        <time>2020-11-15T13:57:33Z</time>
      </trkpt>
      <trkpt lat="49.6231" lon="4.98404">
        <ele>256.81</ele>
        <time>2020-11-15T13:57:37Z</time>
      </trkpt>
      <trkpt lat="49.62322" lon="4.98423">
        <ele>258.73</ele>
        <time>2020-11-15T13:57:53Z</time>
      </trkpt>
      <trkpt lat="49.6234" lon="4.98435">
        <ele>255.37</ele>
        <time>2020-11-15T13:58:11Z</time>
      </trkpt>
      <trkpt lat="49.62355" lon="4.98449">
        <ele>256.81</ele>
        <time>2020-11-15T13:58:27Z</time>
      </trkpt>
      <trkpt lat="49.62366" lon="4.98461">
        <ele>259.69</ele>
        <time>2020-11-15T13:58:42Z</time>
      </trkpt>
      <trkpt lat="49.62384" lon="4.98471">
        <ele>259.69</ele>
        <time>2020-11-15T13:59:00Z</time>
      </trkpt>
      <trkpt lat="49.624" lon="4.9848">
        <ele>258.25</ele>
        <time>2020-11-15T13:59:15Z</time>
      </trkpt>
      <trkpt lat="49.62416" lon="4.9849">
        <ele>256.33</ele>
        <time>2020-11-15T13:59:30Z</time>
      </trkpt>
      <trkpt lat="49.62433" lon="4.98503">
        <ele>254.41</ele>
        <time>2020-11-15T13:59:49Z</time>
      </trkpt>
      <trkpt lat="49.62436" lon="4.98506">
        <ele>254.41</ele>
        <time>2020-11-15T13:59:52Z</time>
      </trkpt>
      <trkpt lat="49.62454" lon="4.9852">
        <ele>253.44</ele>
        <time>2020-11-15T14:00:10Z</time>
      </trkpt>
      <trkpt lat="49.62461" lon="4.98524">
        <ele>252.96</ele>
        <time>2020-11-15T14:00:18Z</time>
      </trkpt>
      <trkpt lat="49.6247" lon="4.98532">
        <ele>253.44</ele>
        <time>2020-11-15T14:00:27Z</time>
      </trkpt>
      <trkpt lat="49.62476" lon="4.98538">
        <ele>253.44</ele>
        <time>2020-11-15T14:00:33Z</time>
      </trkpt>
      <trkpt lat="49.62493" lon="4.98552">
        <ele>253.93</ele>
        <time>2020-11-15T14:00:51Z</time>
      </trkpt>
      <trkpt lat="49.62511" lon="4.98563">
        <ele>252.96</ele>
        <time>2020-11-15T14:01:08Z</time>
      </trkpt>
      <trkpt lat="49.62528" lon="4.98567">
        <ele>252.96</ele>
        <time>2020-11-15T14:01:24Z</time>
      </trkpt>
      <trkpt lat="49.62548" lon="4.98561">
        <ele>254.41</ele>
        <time>2020-11-15T14:01:43Z</time>
      </trkpt>
      <trkpt lat="49.62552" lon="4.98566">
        <ele>254.89</ele>
        <time>2020-11-15T14:01:48Z</time>
      </trkpt>
      <trkpt lat="49.62556" lon="4.98586">
        <ele>255.85</ele>
        <time>2020-11-15T14:02:01Z</time>
      </trkpt>
      <trkpt lat="49.62572" lon="4.98579">
        <ele>259.69</ele>
        <time>2020-11-15T14:02:17Z</time>
      </trkpt>
      <trkpt lat="49.6259" lon="4.98562">
        <ele>259.69</ele>
        <time>2020-11-15T14:02:35Z</time>
      </trkpt>
      <trkpt lat="49.62606" lon="4.98548">
        <ele>258.25</ele>
        <time>2020-11-15T14:02:52Z</time>
      </trkpt>
      <trkpt lat="49.62622" lon="4.98536">
        <ele>257.29</ele>
        <time>2020-11-15T14:03:07Z</time>
      </trkpt>
      <trkpt lat="49.62639" lon="4.9852">
        <ele>259.21</ele>
        <time>2020-11-15T14:03:25Z</time>
      </trkpt>
      <trkpt lat="49.62658" lon="4.98504">
        <ele>259.21</ele>
        <time>2020-11-15T14:03:44Z</time>
      </trkpt>
      <trkpt lat="49.62669" lon="4.98495">
        <ele>258.25</ele>
        <time>2020-11-15T14:03:58Z</time>
      </trkpt>
      <trkpt lat="49.62689" lon="4.98479">
        <ele>257.29</ele>
        <time>2020-11-15T14:04:15Z</time>
      </trkpt>
      <trkpt lat="49.62695" lon="4.98475">
        <ele>257.29</ele>
        <time>2020-11-15T14:04:20Z</time>
      </trkpt>
      <trkpt lat="49.62714" lon="4.98457">
        <ele>255.37</ele>
        <time>2020-11-15T14:04:40Z</time>
      </trkpt>
      <trkpt lat="49.62727" lon="4.98448">
        <ele>254.89</ele>
        <time>2020-11-15T14:04:53Z</time>
      </trkpt>
      <trkpt lat="49.62749" lon="4.98427">
        <ele>252</ele>
        <time>2020-11-15T14:05:16Z</time>
      </trkpt>
      <trkpt lat="49.62769" lon="4.98413">
        <ele>248.64</ele>
        <time>2020-11-15T14:05:36Z</time>
      </trkpt>
      <trkpt lat="49.62788" lon="4.98399">
        <ele>246.72</ele>
        <time>2020-11-15T14:05:55Z</time>
      </trkpt>
      <trkpt lat="49.62802" lon="4.98386">
        <ele>244.79</ele>
        <time>2020-11-15T14:06:12Z</time>
      </trkpt>
      <trkpt lat="49.6282" lon="4.98371">
        <ele>244.31</ele>
        <time>2020-11-15T14:06:30Z</time>
      </trkpt>
      <trkpt lat="49.62835" lon="4.98361">
        <ele>238.06</ele>
        <time>2020-11-15T14:06:46Z</time>
      </trkpt>
      <trkpt lat="49.62851" lon="4.98352">
        <ele>231.81</ele>
        <time>2020-11-15T14:07:06Z</time>
      </trkpt>
      <trkpt lat="49.62865" lon="4.98346">
        <ele>229.89</ele>
        <time>2020-11-15T14:07:19Z</time>
      </trkpt>
      <trkpt lat="49.62889" lon="4.98341">
        <ele>233.74</ele>
        <time>2020-11-15T14:07:39Z</time>
      </trkpt>
      <trkpt lat="49.62906" lon="4.98337">
        <ele>235.18</ele>
        <time>2020-11-15T14:07:53Z</time>
      </trkpt>
      <trkpt lat="49.62921" lon="4.98332">
        <ele>234.22</ele>
        <time>2020-11-15T14:08:09Z</time>
      </trkpt>
      <trkpt lat="49.62943" lon="4.98323">
        <ele>237.58</ele>
        <time>2020-11-15T14:08:28Z</time>
      </trkpt>
      <trkpt lat="49.62955" lon="4.98324">
        <ele>237.1</ele>
        <time>2020-11-15T14:08:40Z</time>
      </trkpt>
      <trkpt lat="49.62973" lon="4.98325">
        <ele>233.74</ele>
        <time>2020-11-15T14:08:58Z</time>
      </trkpt>
      <trkpt lat="49.62983" lon="4.98326">
        <ele>233.26</ele>
        <time>2020-11-15T14:09:06Z</time>
      </trkpt>
      <trkpt lat="49.63003" lon="4.98329">
        <ele>232.3</ele>
        <time>2020-11-15T14:09:21Z</time>
      </trkpt>
      <trkpt lat="49.63018" lon="4.9833">
        <ele>232.3</ele>
        <time>2020-11-15T14:09:36Z</time>
      </trkpt>
      <trkpt lat="49.63034" lon="4.98331">
        <ele>229.41</ele>
        <time>2020-11-15T14:09:52Z</time>
      </trkpt>
      <trkpt lat="49.63044" lon="4.98333">
        <ele>227.97</ele>
        <time>2020-11-15T14:10:06Z</time>
      </trkpt>
      <trkpt lat="49.63064" lon="4.98334">
        <ele>228.45</ele>
        <time>2020-11-15T14:10:20Z</time>
      </trkpt>
      <trkpt lat="49.6308" lon="4.98334">
        <ele>228.45</ele>
        <time>2020-11-15T14:10:34Z</time>
      </trkpt>
      <trkpt lat="49.63089" lon="4.98337">
        <ele>228.93</ele>
        <time>2020-11-15T14:10:49Z</time>
      </trkpt>
      <trkpt lat="49.63103" lon="4.98341">
        <ele>227.49</ele>
        <time>2020-11-15T14:11:04Z</time>
      </trkpt>
      <trkpt lat="49.63116" lon="4.98342">
        <ele>227.97</ele>
        <time>2020-11-15T14:11:17Z</time>
      </trkpt>
      <trkpt lat="49.63135" lon="4.98342">
        <ele>227.49</ele>
        <time>2020-11-15T14:11:32Z</time>
      </trkpt>
      <trkpt lat="49.63159" lon="4.98342">
        <ele>227.49</ele>
        <time>2020-11-15T14:11:47Z</time>
      </trkpt>
      <trkpt lat="49.6318" lon="4.98341">
        <ele>226.53</ele>
        <time>2020-11-15T14:12:02Z</time>
      </trkpt>
      <trkpt lat="49.63194" lon="4.98342">
        <ele>224.61</ele>
        <time>2020-11-15T14:12:15Z</time>
      </trkpt>
      <trkpt lat="49.63207" lon="4.98344">
        <ele>224.61</ele>
        <time>2020-11-15T14:12:29Z</time>
      </trkpt>
      <trkpt lat="49.6322" lon="4.98347">
        <ele>221.24</ele>
        <time>2020-11-15T14:12:40Z</time>
      </trkpt>
      <trkpt lat="49.63227" lon="4.9835">
        <ele>219.8</ele>
        <time>2020-11-15T14:12:53Z</time>
      </trkpt>
      <trkpt lat="49.6323" lon="4.98351">
        <ele>220.28</ele>
        <time>2020-11-15T14:12:56Z</time>
      </trkpt>
      <trkpt lat="49.63245" lon="4.98351">
        <ele>222.68</ele>
        <time>2020-11-15T14:13:10Z</time>
      </trkpt>
      <trkpt lat="49.63256" lon="4.98354">
        <ele>224.12</ele>
        <time>2020-11-15T14:13:22Z</time>
      </trkpt>
      <trkpt lat="49.63283" lon="4.9835">
        <ele>224.61</ele>
        <time>2020-11-15T14:13:35Z</time>
      </trkpt>
      <trkpt lat="49.63297" lon="4.98352">
        <ele>220.28</ele>
        <time>2020-11-15T14:13:51Z</time>
      </trkpt>
      <trkpt lat="49.63313" lon="4.98354">
        <ele>220.76</ele>
        <time>2020-11-15T14:14:06Z</time>
      </trkpt>
      <trkpt lat="49.63336" lon="4.98354">
        <ele>218.84</ele>
        <time>2020-11-15T14:14:20Z</time>
      </trkpt>
      <trkpt lat="49.6335" lon="4.98349">
        <ele>218.36</ele>
        <time>2020-11-15T14:14:36Z</time>
      </trkpt>
      <trkpt lat="49.63361" lon="4.98343">
        <ele>216.91</ele>
        <time>2020-11-15T14:14:51Z</time>
      </trkpt>
      <trkpt lat="49.63372" lon="4.98336">
        <ele>215.47</ele>
        <time>2020-11-15T14:15:07Z</time>
      </trkpt>
      <trkpt lat="49.63385" lon="4.98324">
        <ele>211.63</ele>
        <time>2020-11-15T14:15:23Z</time>
      </trkpt>
      <trkpt lat="49.63404" lon="4.98312">
        <ele>213.07</ele>
        <time>2020-11-15T14:15:42Z</time>
      </trkpt>
      <trkpt lat="49.63416" lon="4.98296">
        <ele>211.15</ele>
        <time>2020-11-15T14:16:00Z</time>
      </trkpt>
      <trkpt lat="49.63426" lon="4.9828">
        <ele>205.86</ele>
        <time>2020-11-15T14:16:18Z</time>
      </trkpt>
      <trkpt lat="49.6344" lon="4.98261">
        <ele>201.05</ele>
        <time>2020-11-15T14:16:38Z</time>
      </trkpt>
      <trkpt lat="49.63451" lon="4.98245">
        <ele>197.69</ele>
        <time>2020-11-15T14:16:55Z</time>
      </trkpt>
      <trkpt lat="49.6346" lon="4.98228">
        <ele>196.25</ele>
        <time>2020-11-15T14:17:10Z</time>
      </trkpt>
      <trkpt lat="49.63473" lon="4.98198">
        <ele>192.4</ele>
        <time>2020-11-15T14:17:28Z</time>
      </trkpt>
      <trkpt lat="49.63479" lon="4.98179">
        <ele>188.56</ele>
        <time>2020-11-15T14:17:41Z</time>
      </trkpt>
      <trkpt lat="49.6348" lon="4.98172">
        <ele>187.59</ele>
        <time>2020-11-15T14:17:45Z</time>
      </trkpt>
      <trkpt lat="49.63485" lon="4.98167">
        <ele>186.63</ele>
        <time>2020-11-15T14:17:50Z</time>
      </trkpt>
      <trkpt lat="49.63496" lon="4.9815">
        <ele>186.63</ele>
        <time>2020-11-15T14:18:03Z</time>
      </trkpt>
      <trkpt lat="49.63502" lon="4.98151">
        <ele>184.71</ele>
        <time>2020-11-15T14:18:11Z</time>
      </trkpt>
      <trkpt lat="49.63518" lon="4.98172">
        <ele>183.27</ele>
        <time>2020-11-15T14:18:30Z</time>
      </trkpt>
      <trkpt lat="49.63533" lon="4.98191">
        <ele>183.75</ele>
        <time>2020-11-15T14:18:48Z</time>
      </trkpt>
      <trkpt lat="49.63548" lon="4.98208">
        <ele>183.75</ele>
        <time>2020-11-15T14:19:06Z</time>
      </trkpt>
      <trkpt lat="49.63551" lon="4.98216">
        <ele>184.71</ele>
        <time>2020-11-15T14:19:20Z</time>
      </trkpt>
      <trkpt lat="49.6357" lon="4.98227">
        <ele>183.75</ele>
        <time>2020-11-15T14:19:39Z</time>
      </trkpt>
      <trkpt lat="49.63575" lon="4.98232">
        <ele>183.27</ele>
        <time>2020-11-15T14:19:55Z</time>
      </trkpt>
      <trkpt lat="49.63574" lon="4.98235">
        <ele>183.75</ele>
        <time>2020-11-15T14:20:16Z</time>
      </trkpt>
      <trkpt lat="49.63572" lon="4.98237">
        <ele>184.71</ele>
        <time>2020-11-15T14:20:28Z</time>
      </trkpt>
      <trkpt lat="49.63574" lon="4.98234">
        <ele>184.71</ele>
        <time>2020-11-15T14:20:45Z</time>
      </trkpt>
      <trkpt lat="49.63575" lon="4.98235">
        <ele>184.71</ele>
        <time>2020-11-15T14:20:59Z</time>
      </trkpt>
      <trkpt lat="49.63575" lon="4.98236">
        <ele>185.19</ele>
        <time>2020-11-15T14:21:19Z</time>
      </trkpt>
      <trkpt lat="49.63574" lon="4.98235">
        <ele>185.67</ele>
        <time>2020-11-15T14:21:34Z</time>
      </trkpt>
      <trkpt lat="49.63571" lon="4.98228">
        <ele>185.19</ele>
        <time>2020-11-15T14:21:42Z</time>
      </trkpt>
      <trkpt lat="49.63565" lon="4.98225">
        <ele>184.71</ele>
        <time>2020-11-15T14:21:54Z</time>
      </trkpt>
      <trkpt lat="49.63551" lon="4.98213">
        <ele>186.15</ele>
        <time>2020-11-15T14:22:10Z</time>
      </trkpt>
      <trkpt lat="49.6355" lon="4.98208">
        <ele>185.67</ele>
        <time>2020-11-15T14:22:24Z</time>
      </trkpt>
      <trkpt lat="49.63546" lon="4.98202">
        <ele>186.15</ele>
        <time>2020-11-15T14:22:33Z</time>
      </trkpt>
      <trkpt lat="49.63535" lon="4.98187">
        <ele>185.19</ele>
        <time>2020-11-15T14:22:47Z</time>
      </trkpt>
      <trkpt lat="49.63521" lon="4.98172">
        <ele>184.23</ele>
        <time>2020-11-15T14:23:06Z</time>
      </trkpt>
      <trkpt lat="49.63507" lon="4.98154">
        <ele>185.19</ele>
        <time>2020-11-15T14:23:22Z</time>
      </trkpt>
      <trkpt lat="49.63497" lon="4.98138">
        <ele>185.19</ele>
        <time>2020-11-15T14:23:36Z</time>
      </trkpt>
      <trkpt lat="49.63497" lon="4.98137">
        <ele>185.19</ele>
        <time>2020-11-15T14:23:37Z</time>
      </trkpt>
      <trkpt lat="49.63492" lon="4.9812">
        <ele>183.27</ele>
        <time>2020-11-15T14:23:49Z</time>
      </trkpt>
      <trkpt lat="49.63493" lon="4.98117">
        <ele>183.75</ele>
        <time>2020-11-15T14:24:07Z</time>
      </trkpt>
      <trkpt lat="49.63487" lon="4.98109">
        <ele>185.19</ele>
        <time>2020-11-15T14:24:21Z</time>
      </trkpt>
      <trkpt lat="49.63474" lon="4.98091">
        <ele>186.63</ele>
        <time>2020-11-15T14:24:36Z</time>
      </trkpt>
      <trkpt lat="49.63461" lon="4.98068">
        <ele>183.27</ele>
        <time>2020-11-15T14:24:53Z</time>
      </trkpt>
      <trkpt lat="49.63458" lon="4.98054">
        <ele>183.27</ele>
        <time>2020-11-15T14:25:06Z</time>
      </trkpt>
      <trkpt lat="49.63456" lon="4.98048">
        <ele>183.27</ele>
        <time>2020-11-15T14:25:19Z</time>
      </trkpt>
      <trkpt lat="49.63454" lon="4.98054">
        <ele>183.75</ele>
        <time>2020-11-15T14:25:43Z</time>
      </trkpt>
      <trkpt lat="49.63456" lon="4.98037">
        <ele>181.35</ele>
        <time>2020-11-15T14:26:01Z</time>
      </trkpt>
      <trkpt lat="49.63457" lon="4.98033">
        <ele>180.87</ele>
        <time>2020-11-15T14:26:21Z</time>
      </trkpt>
      <trkpt lat="49.63457" lon="4.98039">
        <ele>180.38</ele>
        <time>2020-11-15T14:26:41Z</time>
      </trkpt>
      <trkpt lat="49.63458" lon="4.98035">
        <ele>180.38</ele>
        <time>2020-11-15T14:27:00Z</time>
      </trkpt>
    </trkseg>
  </trk>
</gpx>